createdAt,value
2019-05-26T00:00:17.397Z,15.35
2019-05-26T00:03:07.629Z,15.29
2019-05-26T00:05:57.869Z,15.23
2019-05-26T00:08:47.905Z,15.19
2019-05-26T00:11:39.147Z,15.14
2019-05-26T00:14:29.745Z,15.09
2019-05-26T00:17:20.045Z,15.03
2019-05-26T00:20:10.128Z,14.98
2019-05-26T00:22:59.976Z,14.93
2019-05-26T00:25:50.101Z,14.88
2019-05-26T00:28:40.220Z,14.83
2019-05-26T00:31:29.973Z,14.78
2019-05-26T00:34:19.836Z,14.74
2019-05-26T00:37:10.040Z,14.69
2019-05-26T00:40:20.068Z,14.63
2019-05-26T00:43:09.844Z,14.58
2019-05-26T00:45:59.977Z,14.53
2019-05-26T00:48:50.011Z,14.49
2019-05-26T00:51:39.853Z,14.44
2019-05-26T00:54:29.634Z,14.41
2019-05-26T00:57:19.618Z,14.37
2019-05-26T01:00:11.464Z,14.34
2019-05-26T01:03:01.922Z,14.31
2019-05-26T01:05:52.224Z,14.30
2019-05-26T01:08:42.211Z,14.30
2019-05-26T01:11:32.084Z,14.29
2019-05-26T01:14:22.402Z,14.29
2019-05-26T01:17:12.234Z,14.28
2019-05-26T01:20:02.806Z,14.28
2019-05-26T01:22:54.000Z,14.27
2019-05-26T01:25:44.767Z,14.24
2019-05-26T01:28:35.135Z,14.23
2019-05-26T01:31:25.954Z,14.21
2019-05-26T01:34:16.554Z,14.17
2019-05-26T01:37:06.772Z,14.12
2019-05-26T01:39:56.570Z,14.11
2019-05-26T01:42:46.495Z,14.06
2019-05-26T01:45:36.554Z,14.01
2019-05-26T01:48:26.208Z,13.95
2019-05-26T01:51:16.244Z,13.89
2019-05-26T01:54:07.152Z,13.82
2019-05-26T01:56:56.877Z,13.76
2019-05-26T01:59:46.625Z,13.71
2019-05-26T02:02:36.475Z,13.67
2019-05-26T02:05:26.776Z,13.65
2019-05-26T02:08:17.307Z,13.62
2019-05-26T02:11:07.701Z,13.59
2019-05-26T02:13:57.780Z,13.54
2019-05-26T02:16:47.361Z,13.51
2019-05-26T02:19:37.166Z,13.48
2019-05-26T02:22:26.850Z,13.42
2019-05-26T02:25:17.453Z,13.39
2019-05-26T02:28:07.226Z,13.37
2019-05-26T02:30:57.117Z,13.35
2019-05-26T02:33:47.343Z,13.35
2019-05-26T02:36:37.449Z,13.34
2019-05-26T02:39:27.020Z,13.33
2019-05-26T02:42:16.890Z,13.32
2019-05-26T02:45:07.738Z,13.29
2019-05-26T02:47:57.778Z,13.27
2019-05-26T02:50:47.824Z,13.23
2019-05-26T02:53:37.648Z,13.19
2019-05-26T02:56:28.043Z,13.18
2019-05-26T02:59:17.736Z,13.14
2019-05-26T03:02:07.780Z,13.14
2019-05-26T03:04:57.731Z,13.12
2019-05-26T03:07:48.188Z,13.09
2019-05-26T03:10:40.035Z,13.08
2019-05-26T03:13:33.719Z,13.07
2019-05-26T03:16:23.999Z,13.04
2019-05-26T03:19:17.220Z,13.01
2019-05-26T03:22:06.838Z,13.01
2019-05-26T03:25:01.066Z,13.01
2019-05-26T03:27:50.910Z,12.99
2019-05-26T03:30:41.340Z,12.98
2019-05-26T03:33:31.316Z,12.97
2019-05-26T03:36:22.233Z,12.98
2019-05-26T03:39:11.848Z,12.98
2019-05-26T03:42:02.128Z,12.97
2019-05-26T03:44:52.433Z,12.97
2019-05-26T03:47:42.459Z,12.95
2019-05-26T03:50:32.583Z,12.95
2019-05-26T03:53:22.425Z,12.98
2019-05-26T03:56:12.107Z,12.99
2019-05-26T03:59:01.950Z,13.02
2019-05-26T04:01:57.554Z,13.04
2019-05-26T04:04:44.485Z,13.06
2019-05-26T04:07:34.219Z,13.11
2019-05-26T04:10:24.516Z,13.16
2019-05-26T04:13:14.130Z,13.21
2019-05-26T04:16:04.289Z,13.27
2019-05-26T04:18:54.481Z,13.34
2019-05-26T04:21:44.326Z,13.41
2019-05-26T04:24:33.706Z,13.49
2019-05-26T04:27:23.634Z,13.58
2019-05-26T04:30:14.416Z,13.67
2019-05-26T04:33:05.530Z,13.74
2019-05-26T04:35:55.901Z,13.82
2019-05-26T04:38:45.859Z,13.94
2019-05-26T04:41:36.143Z,14.02
2019-05-26T04:44:26.139Z,14.13
2019-05-26T04:47:16.513Z,14.24
2019-05-26T04:50:07.308Z,14.34
2019-05-26T04:53:06.253Z,14.44
2019-05-26T04:55:48.555Z,14.56
2019-05-26T04:58:38.301Z,14.66
2019-05-26T05:01:28.342Z,14.79
2019-05-26T05:04:18.301Z,14.92
2019-05-26T05:07:08.609Z,15.05
2019-05-26T05:09:58.418Z,15.19
2019-05-26T05:12:48.469Z,15.35
2019-05-26T05:15:38.626Z,15.50
2019-05-26T05:18:28.584Z,15.69
2019-05-26T05:21:18.342Z,15.87
2019-05-26T05:24:08.240Z,16.04
2019-05-26T05:26:58.358Z,16.23
2019-05-26T05:29:48.081Z,16.43
2019-05-26T05:32:38.120Z,16.62
2019-05-26T05:35:27.987Z,16.82
2019-05-26T05:38:18.007Z,16.97
2019-05-26T05:41:07.756Z,17.10
2019-05-26T05:43:57.173Z,17.22
2019-05-26T05:46:47.122Z,17.34
2019-05-26T05:49:37.157Z,17.44
2019-05-26T05:52:27.389Z,17.56
2019-05-26T05:55:18.304Z,17.68
2019-05-26T05:58:08.144Z,17.82
2019-05-26T06:00:58.226Z,17.97
2019-05-26T06:03:48.059Z,18.13
2019-05-26T06:06:38.203Z,18.28
2019-05-26T06:09:28.056Z,18.45
2019-05-26T06:12:18.322Z,18.60
2019-05-26T06:15:11.736Z,18.74
2019-05-26T06:18:02.353Z,18.89
2019-05-26T06:20:52.670Z,19.01
2019-05-26T06:23:42.683Z,19.14
2019-05-26T06:26:32.942Z,19.25
2019-05-26T06:29:22.798Z,19.38
2019-05-26T06:32:12.810Z,19.50
2019-05-26T06:35:02.544Z,19.59
2019-05-26T06:37:52.833Z,19.67
2019-05-26T06:40:42.903Z,19.72
2019-05-26T06:43:32.796Z,19.81
2019-05-26T06:46:22.925Z,19.85
2019-05-26T06:49:13.528Z,19.91
2019-05-26T06:52:03.287Z,19.94
2019-05-26T06:54:53.546Z,20.03
2019-05-26T06:57:43.311Z,20.15
2019-05-26T07:00:33.328Z,20.26
2019-05-26T07:03:23.473Z,20.38
2019-05-26T07:06:13.632Z,20.53
2019-05-26T07:09:03.914Z,20.63
2019-05-26T07:11:59.884Z,20.73
2019-05-26T07:14:46.336Z,20.76
2019-05-26T07:17:36.696Z,20.82
2019-05-26T07:20:26.631Z,20.91
2019-05-26T07:23:16.487Z,21.01
2019-05-26T07:26:06.655Z,21.13
2019-05-26T07:28:56.850Z,21.24
2019-05-26T07:31:46.698Z,21.43
2019-05-26T07:34:36.448Z,21.59
2019-05-26T07:37:27.076Z,21.75
2019-05-26T07:40:18.058Z,21.87
2019-05-26T07:43:07.978Z,21.99
2019-05-26T07:45:57.929Z,22.08
2019-05-26T07:48:47.819Z,22.18
2019-05-26T07:51:37.725Z,22.27
2019-05-26T07:54:27.575Z,22.33
2019-05-26T07:57:17.798Z,22.40
2019-05-26T08:00:08.772Z,22.46
2019-05-26T08:02:58.829Z,22.55
2019-05-26T08:05:49.118Z,22.66
2019-05-26T08:08:39.094Z,22.81
2019-05-26T08:11:29.060Z,23.00
2019-05-26T08:14:19.261Z,23.07
2019-05-26T08:17:09.121Z,23.11
2019-05-26T08:19:59.320Z,23.13
2019-05-26T08:22:49.613Z,23.15
2019-05-26T08:25:39.462Z,23.18
2019-05-26T08:28:29.904Z,23.18
2019-05-26T08:31:20.797Z,23.22
2019-05-26T08:34:11.008Z,23.25
2019-05-26T08:37:00.542Z,23.29
2019-05-26T08:39:50.342Z,23.36
2019-05-26T08:42:44.376Z,23.43
2019-05-26T08:45:31.722Z,23.52
2019-05-26T08:48:21.779Z,23.60
2019-05-26T08:51:11.888Z,23.69
2019-05-26T08:54:01.881Z,23.78
2019-05-26T08:56:51.844Z,23.83
2019-05-26T08:59:41.753Z,23.87
2019-05-26T09:02:31.036Z,23.94
2019-05-26T09:05:21.411Z,24.10
2019-05-26T09:08:11.185Z,24.30
2019-05-26T09:11:01.412Z,24.46
2019-05-26T09:13:51.653Z,24.65
2019-05-26T09:16:48.191Z,24.83
2019-05-26T09:19:38.258Z,24.96
2019-05-26T09:22:28.039Z,25.14
2019-05-26T09:25:18.789Z,25.33
2019-05-26T09:28:08.810Z,25.48
2019-05-26T09:30:58.607Z,25.59
2019-05-26T09:33:48.625Z,25.69
2019-05-26T09:36:38.458Z,25.79
2019-05-26T09:39:28.342Z,25.84
2019-05-26T09:42:18.370Z,25.87
2019-05-26T09:45:09.664Z,25.83
2019-05-26T09:47:59.845Z,25.82
2019-05-26T09:50:49.412Z,25.77
2019-05-26T09:53:39.348Z,25.71
2019-05-26T09:56:29.333Z,25.59
2019-05-26T09:59:19.405Z,25.60
2019-05-26T10:02:09.326Z,25.74
2019-05-26T10:04:59.696Z,25.78
2019-05-26T10:07:50.940Z,25.85
2019-05-26T10:10:41.049Z,26.00
2019-05-26T10:13:32.192Z,26.13
2019-05-26T10:16:22.337Z,26.37
2019-05-26T10:19:12.502Z,26.83
2019-05-26T10:22:02.415Z,27.65
2019-05-26T10:24:52.455Z,28.51
2019-05-26T10:27:42.833Z,29.16
2019-05-26T10:30:33.183Z,29.65
2019-05-26T10:33:23.145Z,30.06
2019-05-26T10:36:12.694Z,30.35
2019-05-26T10:39:02.799Z,30.58
2019-05-26T10:41:52.634Z,30.97
2019-05-26T10:44:42.429Z,31.33
2019-05-26T10:47:32.948Z,31.50
2019-05-26T10:50:23.277Z,31.44
2019-05-26T10:53:13.539Z,31.52
2019-05-26T10:56:03.098Z,31.43
2019-05-26T10:58:53.289Z,31.39
2019-05-26T11:01:43.139Z,31.46
2019-05-26T11:04:33.278Z,31.68
2019-05-26T11:07:26.783Z,31.96
2019-05-26T11:14:02.543Z,32.21
2019-05-26T11:16:43.518Z,32.30
2019-05-26T11:19:33.194Z,32.55
2019-05-26T11:22:22.990Z,32.98
2019-05-26T11:25:14.865Z,33.30
2019-05-26T11:28:04.928Z,33.54
2019-05-26T11:30:55.074Z,33.62
2019-05-26T11:33:45.181Z,33.43
2019-05-26T11:36:35.155Z,33.44
2019-05-26T11:39:25.031Z,33.30
2019-05-26T11:42:15.294Z,33.08
2019-05-26T11:45:06.731Z,33.09
2019-05-26T11:47:56.885Z,32.92
2019-05-26T11:50:46.668Z,33.11
2019-05-26T11:53:36.486Z,33.65
2019-05-26T11:56:26.678Z,34.25
2019-05-26T11:59:16.399Z,34.85
2019-05-26T12:02:06.353Z,35.20
2019-05-26T12:04:56.187Z,35.39
2019-05-26T12:07:46.582Z,35.67
2019-05-26T12:10:35.855Z,35.79
2019-05-26T12:13:26.222Z,35.56
2019-05-26T12:16:15.716Z,35.04
2019-05-26T12:19:06.090Z,34.45
2019-05-26T12:21:55.993Z,33.85
2019-05-26T12:24:45.598Z,33.36
2019-05-26T12:27:37.031Z,32.87
2019-05-26T12:30:27.348Z,32.48
2019-05-26T12:33:17.146Z,32.22
2019-05-26T12:36:07.334Z,32.04
2019-05-26T12:38:57.523Z,31.94
2019-05-26T12:41:47.063Z,31.81
2019-05-26T12:44:48.954Z,31.72
2019-05-26T12:47:29.127Z,31.55
2019-05-26T12:50:19.820Z,31.35
2019-05-26T12:53:09.823Z,31.14
2019-05-26T12:55:59.750Z,30.99
2019-05-26T12:59:08.492Z,30.84
2019-05-26T13:01:58.387Z,30.64
2019-05-26T13:04:47.768Z,30.54
2019-05-26T13:07:37.957Z,30.51
2019-05-26T13:10:28.271Z,30.52
2019-05-26T13:13:17.936Z,30.41
2019-05-26T13:16:07.694Z,30.31
2019-05-26T13:18:57.404Z,30.17
2019-05-26T13:21:47.207Z,30.02
2019-05-26T13:24:37.363Z,29.86
2019-05-26T13:27:27.315Z,29.84
2019-05-26T13:30:17.611Z,29.70
2019-05-26T13:33:07.746Z,29.73
2019-05-26T13:35:57.649Z,29.84
2019-05-26T13:38:47.543Z,29.85
2019-05-26T13:41:37.714Z,29.84
2019-05-26T13:44:27.525Z,29.91
2019-05-26T13:47:25.884Z,29.91
2019-05-26T13:50:10.359Z,30.03
2019-05-26T13:53:01.183Z,30.37
2019-05-26T13:55:51.583Z,30.80
2019-05-26T13:58:40.772Z,30.99
2019-05-26T14:01:30.553Z,30.90
2019-05-26T14:04:19.916Z,30.95
2019-05-26T14:07:09.900Z,31.07
2019-05-26T14:09:59.580Z,31.07
2019-05-26T14:12:49.054Z,30.99
2019-05-26T14:15:39.549Z,30.98
2019-05-26T14:18:30.638Z,31.00
2019-05-26T14:21:20.791Z,31.11
2019-05-26T14:24:10.915Z,31.23
2019-05-26T14:27:01.145Z,31.16
2019-05-26T14:29:50.740Z,31.01
2019-05-26T14:32:40.588Z,30.86
2019-05-26T14:35:30.348Z,30.62
2019-05-26T14:38:19.771Z,30.43
2019-05-26T14:41:09.902Z,30.22
2019-05-26T14:43:59.256Z,30.07
2019-05-26T14:46:51.741Z,29.93
2019-05-26T14:49:41.252Z,29.84
2019-05-26T14:52:30.326Z,29.67
2019-05-26T14:55:19.665Z,29.54
2019-05-26T14:58:15.632Z,29.45
2019-05-26T15:01:00.551Z,29.35
2019-05-26T15:03:50.021Z,29.29
2019-05-26T15:06:39.359Z,29.20
2019-05-26T15:09:29.290Z,29.09
2019-05-26T15:12:19.256Z,28.99
2019-05-26T15:15:09.704Z,28.92
2019-05-26T15:17:59.654Z,28.91
2019-05-26T15:20:49.174Z,28.90
2019-05-26T15:23:38.790Z,28.84
2019-05-26T15:26:29.069Z,28.85
2019-05-26T15:29:19.597Z,28.83
2019-05-26T15:32:11.973Z,28.78
2019-05-26T15:35:02.502Z,28.69
2019-05-26T15:37:53.066Z,28.59
2019-05-26T15:40:43.783Z,28.51
2019-05-26T15:43:34.707Z,28.45
2019-05-26T15:46:25.825Z,28.37
2019-05-26T15:49:16.513Z,28.33
2019-05-26T15:52:06.817Z,28.33
2019-05-26T15:54:59.482Z,28.31
2019-05-26T15:57:49.832Z,28.32
2019-05-26T16:00:39.911Z,28.28
2019-05-26T16:03:30.359Z,28.32
2019-05-26T16:06:20.499Z,28.34
2019-05-26T16:09:10.671Z,28.35
2019-05-26T16:12:00.883Z,28.38
2019-05-26T16:14:50.706Z,28.35
2019-05-26T16:17:40.692Z,28.34
2019-05-26T16:20:30.888Z,28.30
2019-05-26T16:23:21.430Z,28.27
2019-05-26T16:26:14.412Z,28.18
2019-05-26T16:29:04.668Z,28.15
2019-05-26T16:31:54.279Z,28.12
2019-05-26T16:34:43.548Z,28.06
2019-05-26T16:37:33.886Z,27.93
2019-05-26T16:40:23.776Z,27.81
2019-05-26T16:43:14.740Z,27.69
2019-05-26T16:46:05.326Z,27.61
2019-05-26T16:48:55.423Z,27.55
2019-05-26T16:51:45.199Z,27.50
2019-05-26T16:54:35.345Z,27.43
2019-05-26T16:57:25.390Z,27.34
2019-05-26T17:00:15.610Z,27.24
2019-05-26T17:03:06.826Z,27.14
2019-05-26T17:06:07.434Z,27.06
2019-05-26T17:08:48.883Z,26.99
2019-05-26T17:11:38.954Z,26.93
2019-05-26T17:14:29.137Z,26.87
2019-05-26T17:17:19.241Z,26.80
2019-05-26T17:20:11.949Z,26.75
2019-05-26T17:23:01.894Z,26.66
2019-05-26T17:25:51.474Z,26.58
2019-05-26T17:28:41.579Z,26.54
2019-05-26T17:31:31.907Z,26.47
2019-05-26T17:34:21.727Z,26.42
2019-05-26T17:37:11.682Z,26.36
2019-05-26T17:40:05.535Z,26.32
2019-05-26T17:42:54.228Z,26.28
2019-05-26T17:45:44.491Z,26.21
2019-05-26T17:48:34.421Z,26.16
2019-05-26T17:51:24.339Z,26.09
2019-05-26T17:54:14.882Z,26.07
2019-05-26T17:57:06.203Z,26.03
2019-05-26T17:59:55.569Z,26.00
2019-05-26T18:02:44.748Z,25.96
2019-05-26T18:05:34.589Z,25.92
2019-05-26T18:08:24.175Z,25.88
2019-05-26T18:11:13.650Z,25.83
2019-05-26T18:14:03.097Z,25.78
2019-05-26T18:16:52.777Z,25.75
2019-05-26T18:19:42.718Z,25.67
2019-05-26T18:22:33.082Z,25.62
2019-05-26T18:25:22.964Z,25.59
2019-05-26T18:28:13.270Z,25.54
2019-05-26T18:31:03.241Z,25.47
2019-05-26T18:33:52.695Z,25.41
2019-05-26T18:36:42.231Z,25.34
2019-05-26T18:39:31.984Z,25.26
2019-05-26T18:42:22.649Z,25.19
2019-05-26T18:45:13.103Z,25.11
2019-05-26T18:48:03.820Z,25.05
2019-05-26T18:50:53.960Z,25.00
2019-05-26T18:53:43.765Z,24.91
2019-05-26T18:56:33.542Z,24.84
2019-05-26T18:59:23.677Z,24.74
2019-05-26T19:02:13.064Z,24.67
2019-05-26T19:05:02.291Z,24.59
2019-05-26T19:08:04.449Z,24.51
2019-05-26T19:10:52.662Z,24.43
2019-05-26T19:13:42.680Z,24.33
2019-05-26T19:16:32.844Z,24.24
2019-05-26T19:19:22.556Z,24.15
2019-05-26T19:22:12.512Z,24.06
2019-05-26T19:25:02.206Z,23.95
2019-05-26T19:27:51.548Z,23.86
2019-05-26T19:30:41.421Z,23.78
2019-05-26T19:33:31.672Z,23.69
2019-05-26T19:36:21.562Z,23.63
2019-05-26T19:39:12.097Z,23.56
2019-05-26T19:42:02.036Z,23.48
2019-05-26T19:44:52.006Z,23.41
2019-05-26T19:47:41.937Z,23.35
2019-05-26T19:50:32.081Z,23.30
2019-05-26T19:53:22.216Z,23.25
2019-05-26T19:56:12.272Z,23.18
2019-05-26T19:59:02.498Z,23.11
2019-05-26T20:01:52.418Z,23.06
2019-05-26T20:04:43.306Z,22.99
2019-05-26T20:07:32.798Z,22.93
2019-05-26T20:10:23.198Z,22.86
2019-05-26T20:17:04.380Z,22.74
2019-05-26T20:20:19.185Z,22.67
2019-05-26T20:23:09.254Z,22.59
2019-05-26T20:25:59.393Z,22.53
2019-05-26T20:28:49.514Z,22.46
2019-05-26T20:31:39.325Z,22.41
2019-05-26T20:34:29.634Z,22.34
2019-05-26T20:37:19.625Z,22.28
2019-05-26T20:40:11.262Z,22.21
2019-05-26T20:43:01.533Z,22.13
2019-05-26T20:45:50.965Z,22.06
2019-05-26T20:48:39.931Z,21.98
2019-05-26T20:51:30.091Z,21.88
2019-05-26T20:54:20.292Z,21.80
2019-05-26T20:57:10.393Z,21.76
2019-05-26T21:00:00.667Z,21.70
2019-05-26T21:02:50.596Z,21.65
2019-05-26T21:05:40.806Z,21.58
2019-05-26T21:08:30.849Z,21.52
2019-05-26T21:11:21.078Z,21.45
2019-05-26T21:14:11.205Z,21.39
2019-05-26T21:17:02.352Z,21.34
2019-05-26T21:19:53.431Z,21.27
2019-05-26T21:22:43.580Z,21.20
2019-05-26T21:25:33.491Z,21.15
2019-05-26T21:28:23.709Z,21.10
2019-05-26T21:31:14.808Z,21.05
2019-05-26T21:34:04.648Z,21.01
2019-05-26T21:36:54.595Z,20.98
2019-05-26T21:39:44.382Z,20.97
2019-05-26T21:42:34.455Z,20.94
2019-05-26T21:45:24.366Z,20.93
2019-05-26T21:48:14.786Z,20.91
2019-05-26T21:51:04.294Z,20.88
2019-05-26T21:53:54.156Z,20.86
2019-05-26T21:56:44.104Z,20.81
2019-05-26T21:59:33.926Z,20.78
2019-05-26T22:02:24.087Z,20.74
2019-05-26T22:05:14.494Z,20.68
2019-05-26T22:08:04.904Z,20.63
2019-05-26T22:10:54.771Z,20.59
2019-05-26T22:13:44.651Z,20.53
2019-05-26T22:16:34.583Z,20.47
2019-05-26T22:19:25.013Z,20.40
2019-05-26T22:22:15.018Z,20.34
2019-05-26T22:25:05.173Z,20.28
2019-05-26T22:27:56.557Z,20.24
2019-05-26T22:30:46.619Z,20.18
2019-05-26T22:33:36.702Z,20.14
2019-05-26T22:36:26.699Z,20.09
2019-05-26T22:39:16.842Z,20.04
2019-05-26T22:42:06.960Z,19.98
2019-05-26T22:44:57.210Z,19.95
2019-05-26T22:47:47.247Z,19.93
2019-05-26T22:50:37.112Z,19.90
2019-05-26T22:53:27.214Z,19.85
2019-05-26T22:56:17.435Z,19.82
2019-05-26T22:59:07.320Z,19.79
2019-05-26T23:01:57.813Z,19.79
2019-05-26T23:04:47.761Z,19.74
2019-05-26T23:07:37.802Z,19.72
2019-05-26T23:10:27.706Z,19.69
2019-05-26T23:13:17.875Z,19.65
2019-05-26T23:16:08.003Z,19.61
2019-05-26T23:18:57.817Z,19.61
2019-05-26T23:21:47.828Z,19.59
2019-05-26T23:24:37.933Z,19.59
2019-05-26T23:27:27.733Z,19.60
2019-05-26T23:30:18.501Z,19.59
2019-05-26T23:33:27.173Z,19.59
2019-05-26T23:36:17.032Z,19.58
2019-05-26T23:39:08.130Z,19.59
2019-05-26T23:41:58.226Z,19.60
2019-05-26T23:44:48.211Z,19.62
2019-05-26T23:47:38.218Z,19.61
2019-05-26T23:50:27.906Z,19.64
2019-05-26T23:53:17.768Z,19.63
2019-05-26T23:56:07.944Z,19.65
2019-05-26T23:58:58.343Z,19.65
